Time;durP1;ratioP1;P1;durP2;ratioP2;P2;SDS_P1;SDS_P2;PMS_P1;PMS_P2;Temp;Humidity;BMP_temperature;BMP_pressure;BME280_temperature;BME280_humidity;BME280_pressure;Samples;Min_cycle;Max_cycle;Signal;HPM_P1;HPM_P2
2022/01/16 00:00:26;;;;;;;72.32;35.92;;;2.30;99.90;;;;;;5084465;28;20036;-74
2022/01/16 00:05:27;;;;;;;74.88;36.83;;;2.00;99.90;;;;;;5079378;28;20044;-74
2022/01/16 00:07:53;;;;;;;76.70;35.47;;;2.00;99.90;;;;;;5080743;28;20574;-74
2022/01/16 00:10:20;;;;;;;76.22;35.88;;;2.00;99.90;;;;;;5082151;28;20028;-74
2022/01/16 00:12:49;;;;;;;70.45;33.72;;;2.00;99.90;;;;;;5079468;28;20123;-74
2022/01/16 00:15:16;;;;;;;67.57;33.35;;;2.10;99.90;;;;;;5082333;28;20044;-74
2022/01/16 00:18:39;;;;;;;68.43;32.20;;;2.00;99.90;;;;;;5112749;27;20036;-74
2022/01/16 00:20:28;;;;;;;64.90;32.67;;;2.00;99.90;;;;;;5077803;28;20055;-74
2022/01/16 00:22:54;;;;;;;64.05;32.83;;;2.00;99.90;;;;;;5080280;28;20364;-74
2022/01/16 00:25:20;;;;;;;64.20;32.47;;;2.00;99.90;;;;;;5085956;28;20111;-74
2022/01/16 00:27:46;;;;;;;65.70;33.42;;;1.90;99.90;;;;;;5085955;28;20814;-74
2022/01/16 00:30:12;;;;;;;64.78;32.10;;;1.90;99.90;;;;;;5084611;28;20152;-74
2022/01/16 00:32:38;;;;;;;64.70;32.42;;;1.90;99.90;;;;;;5081098;28;20506;-74
2022/01/16 00:35:05;;;;;;;62.28;31.92;;;1.90;99.90;;;;;;5080074;28;20085;-73
2022/01/16 00:37:31;;;;;;;62.58;32.22;;;1.90;99.90;;;;;;5082949;28;20048;-74
2022/01/16 00:39:56;;;;;;;65.05;31.73;;;2.10;99.90;;;;;;5081700;28;20036;-74
2022/01/16 00:42:22;;;;;;;71.68;35.03;;;1.90;99.90;;;;;;5079210;28;21030;-74
2022/01/16 00:44:47;;;;;;;65.72;32.78;;;1.90;99.90;;;;;;5087538;28;20487;-74
2022/01/16 00:47:13;;;;;;;76.47;35.75;;;1.90;99.90;;;;;;5081861;28;20064;-74
2022/01/16 00:49:41;;;;;;;68.43;33.47;;;1.90;99.90;;;;;;5083748;28;20097;-74
2022/01/16 00:52:08;;;;;;;76.53;36.22;;;1.90;99.90;;;;;;5113436;27;20130;-74
2022/01/16 00:54:34;;;;;;;74.25;35.83;;;1.90;99.90;;;;;;5081727;28;20035;-74
2022/01/16 00:56:59;;;;;;;72.50;34.67;;;1.80;99.90;;;;;;5079364;28;20101;-74
2022/01/16 00:59:25;;;;;;;76.55;35.60;;;1.80;99.90;;;;;;5082747;28;20387;-73
2022/01/16 01:01:50;;;;;;;78.78;37.58;;;1.80;99.90;;;;;;5084808;28;20058;-73
2022/01/16 01:04:16;;;;;;;80.88;35.08;;;1.80;99.90;;;;;;5080659;28;20086;-74
2022/01/16 01:06:42;;;;;;;74.97;36.38;;;1.80;99.90;;;;;;5081058;28;20044;-74
2022/01/16 01:09:07;;;;;;;86.35;38.08;;;1.90;99.90;;;;;;5082708;28;20041;-73
2022/01/16 01:11:34;;;;;;;81.35;38.03;;;1.80;99.90;;;;;;5082622;28;20072;-74
2022/01/16 01:16:34;;;;;;;83.40;36.35;;;1.80;99.90;;;;;;5086783;28;20045;-74
2022/01/16 01:19:00;;;;;;;82.15;38.15;;;2.00;99.90;;;;;;5081787;28;20548;-74
2022/01/16 01:21:28;;;;;;;84.53;39.28;;;1.90;99.90;;;;;;5080487;28;20040;-74
2022/01/16 01:23:55;;;;;;;95.45;38.67;;;1.80;99.90;;;;;;5099741;28;20456;-74
2022/01/16 01:26:26;;;;;;;88.65;40.67;;;1.90;99.90;;;;;;5116176;27;20040;-74
2022/01/16 01:28:51;;;;;;;89.95;39.55;;;1.90;99.90;;;;;;5088510;28;20048;-74
2022/01/16 01:31:17;;;;;;;92.95;40.15;;;1.90;99.90;;;;;;5112535;27;20050;-73
2022/01/16 01:33:43;;;;;;;91.10;40.80;;;1.90;99.90;;;;;;5082654;28;20449;-73
2022/01/16 01:36:08;;;;;;;94.38;41.53;;;1.90;99.90;;;;;;5076398;28;20109;-74
2022/01/16 01:38:34;;;;;;;101.05;42.42;;;2.00;99.90;;;;;;5078477;28;20044;-74
2022/01/16 01:40:59;;;;;;;99.15;44.88;;;1.90;99.90;;;;;;5078021;28;20036;-74
2022/01/16 01:51:36;;;;;;;97.88;40.75;;;1.90;99.90;;;;;;5082489;28;20363;-73
2022/01/16 01:54:03;;;;;;;93.90;38.33;;;2.00;99.90;;;;;;5111033;27;20051;-74
2022/01/16 01:56:29;;;;;;;90.63;38.55;;;2.00;99.90;;;;;;5116092;27;20123;-73
2022/01/16 01:58:58;;;;;;;102.45;41.50;;;2.00;99.90;;;;;;5077456;28;20155;-73
2022/01/16 02:01:24;;;;;;;102.18;41.50;;;2.00;99.90;;;;;;5080243;28;20040;-74
2022/01/16 02:03:50;;;;;;;103.50;43.00;;;2.00;99.90;;;;;;5081558;28;20170;-74
2022/01/16 02:06:24;;;;;;;111.65;44.90;;;2.00;99.90;;;;;;5082746;28;20082;-74
2022/01/16 02:08:52;;;;;;;115.82;44.47;;;2.00;99.90;;;;;;5109844;27;20048;-73
2022/01/16 02:11:19;;;;;;;117.05;41.30;;;2.00;99.90;;;;;;5079849;28;20051;-74
2022/01/16 02:14:44;;;;;;;107.75;42.08;;;2.00;99.90;;;;;;5077243;28;20048;-73
2022/01/16 02:28:12;;;;;;;125.38;44.33;;;2.00;99.90;;;;;;5084892;28;20075;-73
2022/01/16 02:31:02;;;;;;;123.10;43.70;;;2.00;99.90;;;;;;5082447;28;20135;-73
2022/01/16 02:36:19;;;;;;;135.15;44.78;;;2.00;99.90;;;;;;5115858;27;20055;-73
2022/01/16 02:38:47;;;;;;;132.55;46.67;;;2.00;99.90;;;;;;5082869;28;20054;-73
2022/01/16 02:41:13;;;;;;;136.18;45.33;;;2.00;99.90;;;;;;5084669;28;20055;-74
2022/01/16 02:43:45;;;;;;;154.82;45.28;;;2.00;99.90;;;;;;5080927;28;20040;-74
2022/01/16 02:48:48;;;;;;;156.18;45.53;;;2.00;99.90;;;;;;5115370;27;20072;-74
2022/01/16 02:51:23;;;;;;;143.45;44.60;;;2.00;99.90;;;;;;5117342;27;20505;-73
2022/01/16 02:53:49;;;;;;;165.73;46.90;;;2.00;99.90;;;;;;5080273;28;20159;-73
2022/01/16 02:56:17;;;;;;;161.32;48.28;;;2.00;99.90;;;;;;5083247;28;20124;-73
2022/01/16 02:58:44;;;;;;;172.65;49.17;;;1.90;99.90;;;;;;5084317;28;20131;-74
2022/01/16 03:01:10;;;;;;;162.25;49.50;;;2.10;99.90;;;;;;5082996;28;20051;-73
2022/01/16 03:03:36;;;;;;;159.25;48.05;;;2.00;99.90;;;;;;5081778;28;20041;-74
2022/01/16 03:06:01;;;;;;;178.60;50.53;;;2.10;99.90;;;;;;5084659;28;20044;-74
2022/01/16 03:08:27;;;;;;;170.48;48.78;;;2.10;99.90;;;;;;5083638;28;20629;-73
2022/01/16 03:11:13;;;;;;;197.73;51.90;;;2.10;99.90;;;;;;5080599;28;20041;-73
2022/01/16 03:13:47;;;;;;;186.30;52.25;;;2.10;99.90;;;;;;5081735;28;20066;-74
2022/01/16 03:16:14;;;;;;;211.13;52.08;;;2.10;99.90;;;;;;5082542;28;20561;-74
2022/01/16 03:24:08;;;;;;;219.07;54.63;;;2.10;99.90;;;;;;5079542;28;20044;-74
2022/01/16 03:26:34;;;;;;;185.80;51.88;;;2.20;99.90;;;;;;5079508;28;20046;-73
2022/01/16 03:29:00;;;;;;;186.98;52.17;;;2.20;99.90;;;;;;5080069;28;20048;-74
2022/01/16 03:31:25;;;;;;;165.20;50.45;;;2.20;99.90;;;;;;5080632;28;20035;-73
2022/01/16 03:33:51;;;;;;;151.77;48.50;;;2.20;99.90;;;;;;5081401;28;20045;-74
2022/01/16 03:36:16;;;;;;;157.10;48.65;;;2.20;99.90;;;;;;5083115;28;20552;-74
2022/01/16 03:38:42;;;;;;;152.77;46.92;;;2.20;99.90;;;;;;5079120;28;20051;-73
2022/01/16 03:41:08;;;;;;;160.27;47.80;;;2.30;99.90;;;;;;5116277;27;20040;-73
2022/01/16 03:43:33;;;;;;;151.73;47.90;;;2.30;99.90;;;;;;5082387;28;20036;-74
2022/01/16 03:46:00;;;;;;;166.02;48.13;;;2.70;99.90;;;;;;5082700;28;20181;-74
2022/01/16 03:48:26;;;;;;;154.15;47.90;;;2.30;99.90;;;;;;5114308;27;20101;-74
2022/01/16 03:50:51;;;;;;;166.27;49.10;;;2.30;99.90;;;;;;5079948;28;20044;-73
2022/01/16 03:53:17;;;;;;;168.27;47.03;;;2.30;99.90;;;;;;5079955;28;20560;-74
2022/01/16 03:55:43;;;;;;;177.63;51.10;;;2.30;99.90;;;;;;5083829;28;20127;-74
2022/01/16 03:58:08;;;;;;;173.13;48.40;;;2.30;99.90;;;;;;5067069;28;20089;-74
2022/01/16 04:00:34;;;;;;;157.43;48.03;;;2.40;99.90;;;;;;5081296;28;20121;-74
2022/01/16 04:03:00;;;;;;;177.00;50.50;;;2.40;99.90;;;;;;5080862;28;20048;-74
2022/01/16 04:05:26;;;;;;;162.50;48.40;;;2.30;99.90;;;;;;5083657;28;21286;-74
2022/01/16 04:07:52;;;;;;;185.32;51.28;;;2.40;99.90;;;;;;5078637;28;20040;-74
2022/01/16 04:10:18;;;;;;;167.70;49.38;;;2.50;99.90;;;;;;5082209;28;20036;-74
2022/01/16 04:12:46;;;;;;;177.43;50.25;;;2.40;99.90;;;;;;5081301;28;20438;-73
2022/01/16 04:17:37;;;;;;;169.00;47.08;;;2.50;99.90;;;;;;5081156;28;20048;-73
2022/01/16 04:20:04;;;;;;;181.85;49.38;;;2.50;99.90;;;;;;5082946;28;20036;-74
2022/01/16 04:22:29;;;;;;;188.27;50.55;;;2.50;99.90;;;;;;5080568;28;20771;-74
2022/01/16 04:24:55;;;;;;;180.82;50.90;;;2.50;99.90;;;;;;5078481;28;20131;-74
2022/01/16 04:27:20;;;;;;;166.82;50.10;;;2.60;99.90;;;;;;5079916;28;20131;-73
2022/01/16 04:29:46;;;;;;;177.43;50.53;;;2.60;99.90;;;;;;5083795;28;20119;-74
2022/01/16 04:32:12;;;;;;;187.27;52.97;;;2.50;99.90;;;;;;5082689;28;20541;-74
2022/01/16 04:34:39;;;;;;;189.38;51.90;;;2.60;99.90;;;;;;5082615;28;20037;-73
2022/01/16 04:37:05;;;;;;;175.38;52.20;;;2.60;99.90;;;;;;5080983;28;20040;-73
2022/01/16 04:39:36;;;;;;;176.90;51.03;;;2.60;99.90;;;;;;5080978;28;20539;-73
2022/01/16 04:44:49;;;;;;;197.43;49.85;;;2.60;99.90;;;;;;5082267;28;20478;-74
2022/01/16 04:47:15;;;;;;;189.50;51.72;;;2.70;99.90;;;;;;5076534;28;20045;-73
2022/01/16 04:49:41;;;;;;;176.25;51.10;;;2.70;99.90;;;;;;5078409;28;20036;-74
2022/01/16 04:52:07;;;;;;;184.48;52.42;;;2.70;99.90;;;;;;5078548;28;20034;-74
2022/01/16 04:54:33;;;;;;;175.15;50.92;;;2.80;99.90;;;;;;5082852;28;20407;-73
2022/01/16 04:56:58;;;;;;;191.80;52.45;;;2.70;99.90;;;;;;5080179;28;20040;-73
2022/01/16 04:59:24;;;;;;;174.63;52.15;;;2.80;99.90;;;;;;5086665;28;20119;-72
2022/01/16 05:01:51;;;;;;;170.52;52.90;;;2.80;99.90;;;;;;5113845;27;20036;-73
2022/01/16 05:04:17;;;;;;;203.18;53.92;;;2.80;99.90;;;;;;5077473;28;20035;-74
2022/01/16 05:06:42;;;;;;;188.52;53.65;;;2.90;99.90;;;;;;5079644;28;20073;-73
2022/01/16 05:09:08;;;;;;;189.50;53.30;;;2.90;99.90;;;;;;5081243;28;20527;-73
2022/01/16 05:11:34;;;;;;;197.70;53.97;;;2.90;99.90;;;;;;5082710;28;20601;-73
2022/01/16 05:16:38;;;;;;;168.90;51.63;;;2.90;99.90;;;;;;5082089;28;20498;-73
2022/01/16 05:19:06;;;;;;;166.80;50.03;;;2.90;99.90;;;;;;5080024;28;20051;-73
2022/01/16 05:21:32;;;;;;;172.25;52.67;;;2.90;99.90;;;;;;5083038;28;20064;-73
2022/01/16 05:23:57;;;;;;;168.57;51.80;;;2.90;99.90;;;;;;5084009;28;20259;-73
2022/01/16 05:26:28;;;;;;;174.15;52.30;;;3.00;99.90;;;;;;5115404;27;20188;-73
2022/01/16 05:28:57;;;;;;;164.30;52.28;;;3.00;99.90;;;;;;5080304;28;20475;-73
2022/01/16 05:31:24;;;;;;;153.95;52.13;;;3.00;99.90;;;;;;5083908;28;20055;-73
2022/01/16 05:33:50;;;;;;;165.77;54.25;;;3.00;99.90;;;;;;5079891;28;20074;-73
2022/01/16 05:36:16;;;;;;;166.70;52.67;;;3.00;99.90;;;;;;5082360;28;20037;-73
2022/01/16 05:38:41;;;;;;;176.68;52.28;;;3.10;99.90;;;;;;5111155;27;20502;-73
2022/01/16 05:41:07;;;;;;;164.50;50.95;;;3.10;99.90;;;;;;5077611;28;20534;-74
2022/01/16 05:43:32;;;;;;;164.23;52.70;;;3.10;99.90;;;;;;5078938;28;20036;-74
2022/01/16 05:45:58;;;;;;;167.63;52.28;;;3.10;99.90;;;;;;5081881;28;20075;-74
2022/01/16 05:48:26;;;;;;;160.65;52.47;;;3.10;99.90;;;;;;5080862;28;20702;-74
2022/01/16 05:50:51;;;;;;;158.70;50.75;;;3.10;99.90;;;;;;5081708;28;20044;-74
2022/01/16 05:53:17;;;;;;;172.82;52.53;;;3.20;99.90;;;;;;5080015;28;20074;-73
2022/01/16 05:55:42;;;;;;;167.95;52.05;;;3.20;99.90;;;;;;5083037;28;20048;-73
2022/01/16 05:58:09;;;;;;;156.20;51.17;;;3.20;99.90;;;;;;5084676;28;20036;-74
2022/01/16 06:00:37;;;;;;;168.57;52.53;;;3.20;99.90;;;;;;5082712;28;20043;-73
2022/01/16 06:03:03;;;;;;;157.65;53.00;;;3.20;99.90;;;;;;5082381;28;20052;-74
2022/01/16 06:05:28;;;;;;;162.25;52.35;;;3.30;99.90;;;;;;5083131;28;20059;-73
2022/01/16 06:07:58;;;;;;;154.30;52.42;;;3.30;99.90;;;;;;5088074;28;20120;-73
2022/01/16 06:10:24;;;;;;;161.75;51.45;;;3.30;99.90;;;;;;5079839;28;20082;-74
2022/01/16 06:12:53;;;;;;;174.32;50.80;;;3.30;99.90;;;;;;5086599;28;20036;-73
2022/01/16 06:15:20;;;;;;;166.23;54.15;;;3.40;99.90;;;;;;5067530;28;20134;-73
2022/01/16 06:17:46;;;;;;;159.30;50.47;;;3.30;99.90;;;;;;5089767;28;20071;-74
2022/01/16 06:20:14;;;;;;;163.20;50.72;;;3.40;99.90;;;;;;5115722;27;20402;-74
2022/01/16 06:22:39;;;;;;;175.00;53.63;;;3.40;99.90;;;;;;5081141;28;20039;-73
2022/01/16 06:25:05;;;;;;;171.80;53.13;;;3.40;99.90;;;;;;5085619;28;20044;-73
2022/01/16 06:27:31;;;;;;;160.13;51.63;;;3.40;99.90;;;;;;5086826;28;20034;-74
2022/01/16 06:29:57;;;;;;;166.73;51.85;;;3.50;99.90;;;;;;5087869;28;20039;-74
2022/01/16 06:32:22;;;;;;;168.18;51.15;;;3.50;99.90;;;;;;5082305;28;20097;-74
2022/01/16 06:34:48;;;;;;;164.85;53.72;;;3.50;99.90;;;;;;5085613;28;20090;-73
2022/01/16 06:37:14;;;;;;;175.88;53.28;;;3.50;99.90;;;;;;5081836;28;20046;-74
2022/01/16 06:39:39;;;;;;;160.52;52.67;;;3.60;99.90;;;;;;5082462;28;20094;-74
2022/01/16 06:42:05;;;;;;;167.90;52.75;;;3.60;99.90;;;;;;5083981;28;20425;-73
2022/01/16 06:44:31;;;;;;;162.90;54.10;;;3.50;99.90;;;;;;5086163;28;20051;-74
2022/01/16 06:46:56;;;;;;;163.20;52.15;;;3.60;99.90;;;;;;5081792;28;20040;-74
2022/01/16 06:49:22;;;;;;;165.45;52.97;;;3.60;99.90;;;;;;5118543;27;20067;-73
2022/01/16 06:51:48;;;;;;;167.18;52.45;;;3.70;99.90;;;;;;5084671;28;20613;-73
2022/01/16 06:54:13;;;;;;;175.10;54.80;;;3.70;99.90;;;;;;5117293;27;20039;-73
2022/01/16 06:56:39;;;;;;;163.57;53.65;;;3.70;99.90;;;;;;5115474;27;20046;-74
2022/01/16 06:59:04;;;;;;;163.32;53.53;;;3.70;99.90;;;;;;5082604;28;20414;-73
2022/01/16 07:01:30;;;;;;;167.52;52.58;;;3.70;99.90;;;;;;5083329;28;20491;-73
2022/01/16 07:03:56;;;;;;;167.93;53.67;;;3.80;99.90;;;;;;5081308;28;20043;-74
2022/01/16 07:06:23;;;;;;;168.70;54.58;;;3.80;99.90;;;;;;5082640;28;20086;-73
2022/01/16 07:08:49;;;;;;;164.00;54.22;;;3.80;99.90;;;;;;5114758;27;20032;-73
2022/01/16 07:11:16;;;;;;;171.57;55.42;;;3.80;99.90;;;;;;5087160;28;20645;-74
2022/01/16 07:13:42;;;;;;;162.40;53.53;;;3.90;99.90;;;;;;5085253;28;20483;-74
2022/01/16 07:16:08;;;;;;;171.45;57.22;;;3.90;99.90;;;;;;5095164;27;20063;-73
2022/01/16 07:18:34;;;;;;;160.02;56.33;;;3.90;99.90;;;;;;5082330;28;20048;-74
2022/01/16 07:20:59;;;;;;;163.48;56.50;;;3.90;99.90;;;;;;5085168;28;20076;-73
2022/01/16 07:23:25;;;;;;;159.00;56.22;;;3.90;99.90;;;;;;5087614;28;20127;-73
2022/01/16 07:25:52;;;;;;;161.27;57.17;;;3.90;99.90;;;;;;5085808;28;20048;-74
2022/01/16 07:28:19;;;;;;;158.82;53.22;;;4.00;99.90;;;;;;5087746;28;20116;-73
2022/01/16 07:30:45;;;;;;;158.38;55.17;;;4.00;99.90;;;;;;5082830;28;20587;-74
2022/01/16 07:33:10;;;;;;;160.30;54.90;;;4.10;99.90;;;;;;5082877;28;20131;-74
2022/01/16 07:35:37;;;;;;;159.23;57.20;;;4.10;99.90;;;;;;5083288;28;20072;-74
2022/01/16 07:38:04;;;;;;;149.30;53.55;;;4.10;99.90;;;;;;5084454;28;20032;-74
2022/01/16 07:40:30;;;;;;;158.07;54.78;;;4.10;99.90;;;;;;5088809;28;20042;-74
2022/01/16 07:42:56;;;;;;;142.30;53.80;;;4.20;99.90;;;;;;5082938;28;20043;-74
2022/01/16 07:45:22;;;;;;;145.35;54.05;;;4.20;99.90;;;;;;5082785;28;20568;-74
2022/01/16 07:47:48;;;;;;;146.45;54.08;;;4.20;99.90;;;;;;5081857;28;20067;-74
2022/01/16 07:50:15;;;;;;;142.95;53.42;;;4.30;99.90;;;;;;5084692;28;20050;-74
2022/01/16 07:52:41;;;;;;;155.18;53.70;;;4.30;99.90;;;;;;5085532;28;20071;-74
2022/01/16 07:55:07;;;;;;;144.05;55.70;;;4.30;99.90;;;;;;5072660;28;20066;-74
2022/01/16 07:57:32;;;;;;;150.75;54.30;;;4.30;99.90;;;;;;5083954;28;20039;-74
2022/01/16 07:59:58;;;;;;;151.05;56.72;;;4.30;99.90;;;;;;5087775;28;20040;-74
2022/01/16 08:02:23;;;;;;;145.20;51.47;;;4.40;99.90;;;;;;5083342;28;20510;-74
2022/01/16 08:04:49;;;;;;;133.52;53.10;;;4.40;99.90;;;;;;5081561;28;20039;-74
2022/01/16 08:07:15;;;;;;;141.57;53.67;;;4.40;99.90;;;;;;5113456;27;20209;-74
2022/01/16 08:09:41;;;;;;;148.07;54.00;;;4.50;99.90;;;;;;5081483;28;20075;-74
2022/01/16 08:12:08;;;;;;;141.57;55.35;;;4.50;99.90;;;;;;5112305;27;20052;-74
2022/01/16 08:14:34;;;;;;;137.60;55.20;;;4.50;99.90;;;;;;5079138;28;20043;-74
2022/01/16 08:17:00;;;;;;;132.90;53.50;;;4.50;99.90;;;;;;5078844;28;20447;-74
2022/01/16 08:19:27;;;;;;;142.18;55.35;;;4.50;99.90;;;;;;5083747;28;20036;-74
2022/01/16 08:21:54;;;;;;;137.02;53.97;;;4.60;99.90;;;;;;5082565;28;20040;-74
2022/01/16 08:24:19;;;;;;;137.07;54.13;;;4.50;99.90;;;;;;5079506;28;20406;-74
2022/01/16 08:26:45;;;;;;;137.60;52.42;;;4.60;99.90;;;;;;5083338;28;20032;-74
2022/01/16 08:29:12;;;;;;;139.27;53.75;;;4.60;99.90;;;;;;5083401;28;20032;-74
2022/01/16 08:31:37;;;;;;;126.72;53.42;;;4.60;99.90;;;;;;5081277;28;20510;-74
2022/01/16 08:34:03;;;;;;;134.05;52.45;;;4.60;99.90;;;;;;5083228;28;20086;-74
2022/01/16 08:36:29;;;;;;;131.10;52.40;;;4.70;99.90;;;;;;5082582;28;20040;-74
2022/01/16 08:38:55;;;;;;;126.38;51.28;;;4.60;99.90;;;;;;5086846;28;20184;-74
2022/01/16 08:41:22;;;;;;;120.28;50.65;;;4.60;99.90;;;;;;5081805;28;20082;-74
2022/01/16 08:43:48;;;;;;;130.25;51.13;;;4.70;99.90;;;;;;5081173;28;20402;-74
2022/01/16 08:46:14;;;;;;;114.72;49.30;;;4.80;99.90;;;;;;5062523;28;20041;-74
2022/01/16 08:48:40;;;;;;;125.55;51.33;;;4.70;99.90;;;;;;5081139;28;20064;-74
2022/01/16 08:51:06;;;;;;;112.70;48.28;;;4.80;99.90;;;;;;5079150;28;20428;-74
2022/01/16 08:53:32;;;;;;;116.78;49.95;;;4.70;99.90;;;;;;5095650;28;20047;-74
2022/01/16 08:55:59;;;;;;;113.03;48.63;;;4.80;99.90;;;;;;5079752;28;20044;-74
2022/01/16 08:58:25;;;;;;;98.07;47.35;;;4.80;99.90;;;;;;5081022;28;20062;-74
2022/01/16 09:00:51;;;;;;;100.30;46.88;;;4.90;99.90;;;;;;5082172;28;20045;-74
2022/01/16 09:03:19;;;;;;;106.60;48.95;;;4.90;99.90;;;;;;5081031;28;20033;-74
2022/01/16 09:05:45;;;;;;;98.70;46.70;;;4.90;99.90;;;;;;5081689;28;20370;-74
2022/01/16 09:08:11;;;;;;;103.18;47.85;;;5.00;99.90;;;;;;5085649;28;20056;-74
2022/01/16 09:10:37;;;;;;;98.47;47.22;;;5.00;99.90;;;;;;5079986;28;20386;-74
2022/01/16 09:13:04;;;;;;;100.45;46.65;;;5.00;99.90;;;;;;5069971;28;20036;-74
2022/01/16 09:15:30;;;;;;;97.25;45.63;;;5.10;99.90;;;;;;5086819;28;20046;-74
2022/01/16 09:17:56;;;;;;;86.15;44.95;;;5.10;99.90;;;;;;5080206;28;20040;-74
2022/01/16 09:20:22;;;;;;;92.35;44.55;;;5.20;99.90;;;;;;5080750;28;20115;-74
2022/01/16 09:22:49;;;;;;;90.05;43.83;;;5.30;99.90;;;;;;5078444;28;20413;-74
2022/01/16 09:25:17;;;;;;;83.68;42.72;;;5.20;99.90;;;;;;5081986;28;20120;-74
2022/01/16 09:27:43;;;;;;;86.63;41.65;;;5.30;99.90;;;;;;5082365;28;20032;-74
2022/01/16 09:30:11;;;;;;;85.50;43.33;;;5.40;99.90;;;;;;5080304;28;20035;-74
2022/01/16 09:32:37;;;;;;;83.63;42.20;;;5.30;99.90;;;;;;5081693;28;20446;-74
2022/01/16 09:35:05;;;;;;;82.25;41.22;;;5.40;99.90;;;;;;5081994;28;20562;-74
2022/01/16 09:37:30;;;;;;;80.80;42.25;;;5.40;99.90;;;;;;5081743;28;20036;-74
2022/01/16 09:39:58;;;;;;;82.57;41.70;;;5.50;99.90;;;;;;5085242;28;20175;-74
2022/01/16 09:42:24;;;;;;;74.57;41.08;;;5.50;99.90;;;;;;5079676;28;20118;-74
2022/01/16 09:44:51;;;;;;;76.25;40.17;;;5.50;99.90;;;;;;5113022;28;20048;-74
2022/01/16 09:47:17;;;;;;;71.85;40.70;;;5.50;99.90;;;;;;5084403;28;20048;-74
2022/01/16 09:49:43;;;;;;;73.65;40.28;;;5.50;99.90;;;;;;5111604;28;20040;-74
2022/01/16 09:52:09;;;;;;;74.13;39.13;;;5.60;99.90;;;;;;5081081;28;20052;-74
2022/01/16 09:54:37;;;;;;;69.63;38.10;;;5.80;99.90;;;;;;5079049;28;20475;-74
2022/01/16 09:57:03;;;;;;;71.20;39.38;;;5.60;99.90;;;;;;5080357;28;20056;-74
2022/01/16 09:59:29;;;;;;;73.57;38.58;;;5.60;99.90;;;;;;5080366;28;20055;-74
2022/01/16 10:01:54;;;;;;;62.67;35.72;;;5.60;99.90;;;;;;5081060;28;20052;-74
2022/01/16 10:04:30;;;;;;;66.75;36.45;;;5.70;99.90;;;;;;5081211;28;20037;-74
2022/01/16 10:06:57;;;;;;;;;;;5.70;99.90;;;;;;5082311;28;20398;-74
2022/01/16 10:09:23;;;;;;;72.85;35.95;;;5.70;99.90;;;;;;5069334;28;19916;-74
2022/01/16 10:12:02;;;;;;;60.50;34.42;;;5.70;99.90;;;;;;5081462;28;20043;-74
2022/01/16 10:14:43;;;;;;;61.35;35.60;;;5.80;99.90;;;;;;5081144;28;20111;-74
2022/01/16 10:17:12;;;;;;;57.03;34.38;;;5.70;99.90;;;;;;5082368;28;20085;-74
2022/01/16 10:19:38;;;;;;;58.42;33.72;;;5.80;99.90;;;;;;5113125;28;20040;-74
2022/01/16 10:22:09;;;;;;;52.75;31.65;;;5.80;99.90;;;;;;5076124;28;20139;-74
2022/01/16 10:24:35;;;;;;;57.55;32.95;;;5.80;99.90;;;;;;5095260;28;20082;-74
2022/01/16 10:27:17;;;;;;;58.50;31.38;;;5.80;99.90;;;;;;5080897;28;20055;-74
2022/01/16 10:29:47;;;;;;;51.35;30.17;;;5.80;99.90;;;;;;5079549;28;20064;-74
2022/01/16 10:32:22;;;;;;;48.83;30.40;;;5.90;99.90;;;;;;5077984;28;20048;-74
2022/01/16 10:34:53;;;;;;;49.58;27.70;;;5.90;99.90;;;;;;5078675;28;20109;-74
2022/01/16 10:37:30;;;;;;;50.60;28.55;;;5.90;99.90;;;;;;5080203;28;20040;-74
2022/01/16 10:40:00;;;;;;;50.67;26.90;;;6.00;99.90;;;;;;5085115;28;20094;-74
2022/01/16 10:42:29;;;;;;;44.22;26.48;;;6.00;99.90;;;;;;5080842;28;20047;-74
2022/01/16 10:45:00;;;;;;;48.17;26.23;;;6.00;99.90;;;;;;5082636;28;20086;-74
2022/01/16 10:47:34;;;;;;;41.10;23.98;;;5.90;99.90;;;;;;5085867;28;20620;-74
2022/01/16 10:50:06;;;;;;;41.90;24.85;;;6.00;99.90;;;;;;5085917;28;20048;-74
2022/01/16 10:52:32;;;;;;;40.58;23.98;;;6.00;99.90;;;;;;5081159;28;20139;-74
2022/01/16 10:55:06;;;;;;;35.22;22.90;;;6.10;99.90;;;;;;5083329;28;20070;-74
2022/01/16 10:57:32;;;;;;;41.25;23.80;;;6.10;99.90;;;;;;5080972;28;20062;-74
2022/01/16 11:00:13;;;;;;;33.92;20.02;;;6.10;99.90;;;;;;5079406;28;20040;-74
2022/01/16 11:02:42;;;;;;;36.42;18.27;;;6.20;99.90;;;;;;5078042;28;20051;-74
2022/01/16 11:05:15;;;;;;;30.73;17.90;;;6.20;99.90;;;;;;5080072;28;20059;-74
2022/01/16 11:07:42;;;;;;;31.05;17.85;;;6.20;99.90;;;;;;5080483;28;20059;-74
2022/01/16 11:10:42;;;;;;;27.75;18.02;;;6.20;99.90;;;;;;5078775;28;20150;-74
2022/01/16 11:13:17;;;;;;;30.17;17.42;;;6.30;99.90;;;;;;5083745;28;20399;-74
2022/01/16 11:15:46;;;;;;;29.20;17.20;;;6.30;99.90;;;;;;5085071;28;20798;-75
2022/01/16 11:18:12;;;;;;;29.95;16.58;;;6.30;99.90;;;;;;5081116;28;20295;-75
2022/01/16 11:20:39;;;;;;;30.98;15.98;;;6.30;99.90;;;;;;5079361;28;20040;-74
2022/01/16 11:23:16;;;;;;;30.85;14.95;;;6.40;99.90;;;;;;5111504;27;20083;-75
2022/01/16 11:25:44;;;;;;;33.92;15.73;;;6.40;99.90;;;;;;5078436;28;20479;-74
2022/01/16 11:28:11;;;;;;;33.90;15.40;;;6.30;99.90;;;;;;5080360;28;20526;-74
2022/01/16 11:30:47;;;;;;;29.75;14.88;;;6.40;99.90;;;;;;5084320;28;20036;-74
2022/01/16 11:33:14;;;;;;;24.02;13.80;;;6.40;99.90;;;;;;5080658;28;20040;-75
2022/01/16 11:35:49;;;;;;;25.75;13.48;;;6.40;99.90;;;;;;5078135;28;20040;-75
2022/01/16 11:38:19;;;;;;;24.35;12.35;;;6.40;99.90;;;;;;5085365;28;20033;-75
2022/01/16 11:40:46;;;;;;;25.27;12.40;;;6.40;99.90;;;;;;5081833;28;20087;-74
2022/01/16 11:43:37;;;;;;;27.85;12.05;;;6.40;99.90;;;;;;5080919;28;20024;-75
2022/01/16 11:46:06;;;;;;;20.42;11.93;;;6.50;99.90;;;;;;5081526;28;20032;-74
2022/01/16 11:48:47;;;;;;;19.85;12.15;;;6.50;99.90;;;;;;5077532;28;20089;-75
2022/01/16 11:54:40;;;;;;;26.20;14.55;;;6.50;99.90;;;;;;5078997;28;20423;-74
2022/01/16 11:57:25;;;;;;;32.50;15.80;;;6.50;99.90;;;;;;5078584;28;20671;-74
2022/01/16 12:00:11;;;;;;;27.48;15.80;;;6.50;99.90;;;;;;5080538;28;20131;-75
2022/01/16 12:02:42;;;;;;;30.52;15.52;;;6.50;99.90;;;;;;5081044;28;20558;-75
2022/01/16 12:05:08;;;;;;;27.60;14.75;;;6.40;99.90;;;;;;5079468;28;20048;-74
2022/01/16 12:07:34;;;;;;;32.58;14.40;;;6.40;99.90;;;;;;5081620;28;20120;-75
2022/01/16 12:10:00;;;;;;;24.05;14.77;;;6.40;99.90;;;;;;5111295;27;20432;-75
2022/01/16 12:12:31;;;;;;;27.25;13.30;;;6.40;99.90;;;;;;5080465;28;20054;-74
2022/01/16 12:15:05;;;;;;;22.33;13.50;;;6.40;99.90;;;;;;5087336;28;20035;-75
2022/01/16 12:17:40;;;;;;;21.73;13.07;;;6.40;99.90;;;;;;5081238;28;20043;-74
2022/01/16 12:20:17;;;;;;;25.87;13.17;;;6.40;99.90;;;;;;5082408;28;20048;-74
2022/01/16 12:22:54;;;;;;;21.65;12.93;;;6.40;99.90;;;;;;5081726;28;20047;-74
2022/01/16 12:25:23;;;;;;;23.70;12.68;;;6.50;99.90;;;;;;5081161;28;20685;-75
2022/01/16 12:27:52;;;;;;;20.33;10.15;;;6.50;99.90;;;;;;5079573;28;20478;-74
2022/01/16 12:30:28;;;;;;;16.50;7.40;;;6.60;99.90;;;;;;5084461;28;20040;-75
2022/01/16 12:33:17;;;;;;;14.20;6.50;;;6.60;99.90;;;;;;5080465;28;20500;-74
2022/01/16 12:35:48;;;;;;;22.75;7.05;;;6.60;99.90;;;;;;5101091;27;20041;-74
2022/01/16 12:38:15;;;;;;;20.40;6.60;;;6.60;99.90;;;;;;5112717;27;20036;-75
2022/01/16 12:40:44;;;;;;;23.58;7.28;;;6.70;99.90;;;;;;5080846;28;20033;-75
2022/01/16 12:43:26;;;;;;;15.35;7.68;;;6.70;99.90;;;;;;5083204;28;20621;-74
2022/01/16 12:45:52;;;;;;;17.52;6.45;;;6.80;99.90;;;;;;5086169;28;20098;-75
2022/01/16 12:48:19;;;;;;;13.95;5.82;;;6.80;99.90;;;;;;5087613;28;20036;-75
2022/01/16 12:50:45;;;;;;;20.75;6.38;;;6.80;99.90;;;;;;5079487;28;20040;-74
2022/01/16 12:53:11;;;;;;;14.32;5.82;;;6.80;99.90;;;;;;5082565;28;20066;-75
2022/01/16 12:55:37;;;;;;;18.50;6.38;;;6.90;99.90;;;;;;5080104;28;20102;-75
2022/01/16 12:58:15;;;;;;;14.15;5.57;;;6.80;99.90;;;;;;5079216;28;20475;-75
2022/01/16 13:01:04;;;;;;;20.05;6.20;;;6.90;99.90;;;;;;5078774;28;20119;-75
2022/01/16 13:03:32;;;;;;;17.80;7.38;;;6.90;99.90;;;;;;5082763;28;20041;-74
2022/01/16 13:06:20;;;;;;;16.30;6.38;;;6.90;99.90;;;;;;5084472;28;20085;-75
2022/01/16 13:09:00;;;;;;;20.38;6.35;;;6.90;99.90;;;;;;5115943;27;20044;-74
2022/01/16 13:11:32;;;;;;;19.92;6.60;;;6.90;99.90;;;;;;5081877;28;20042;-74
2022/01/16 13:13:58;;;;;;;11.20;5.50;;;6.90;99.90;;;;;;5081866;28;20035;-75
2022/01/16 13:16:30;;;;;;;13.40;6.03;;;6.90;99.90;;;;;;5077129;28;20052;-75
2022/01/16 13:19:05;;;;;;;13.02;6.35;;;6.90;99.90;;;;;;5087296;28;20044;-74
2022/01/16 13:21:40;;;;;;;17.23;6.85;;;7.00;99.90;;;;;;5084586;28;20128;-75
2022/01/16 13:24:05;;;;;;;12.35;6.05;;;7.00;99.90;;;;;;5081669;28;20049;-75